Time;durP1;ratioP1;P1;durP2;ratioP2;P2;SDS_P1;SDS_P2;PMS_P1;PMS_P2;Temp;Humidity;BMP_temperature;BMP_pressure;BME280_temperature;BME280_humidity;BME280_pressure;Samples;Min_cycle;Max_cycle;Signal;HPM_P1;HPM_P2
2022/01/14 00:01:36;;;;;;;66.13;18.10;;;;;;;3.83;100.00;103732.59;5234619;28;20018;-73
2022/01/14 00:04:08;;;;;;;42.42;16.45;;;;;;;3.81;100.00;103733.47;5234029;28;20036;-73
2022/01/14 00:06:39;;;;;;;59.00;18.00;;;;;;;3.76;100.00;103730.06;5234805;28;20403;-73
2022/01/14 00:09:12;;;;;;;49.13;18.35;;;;;;;3.70;100.00;103730.97;5233565;28;20060;-73
2022/01/14 00:11:49;;;;;;;33.28;15.82;;;;;;;3.82;100.00;103740.38;5216305;28;20029;-73
2022/01/14 00:14:35;;;;;;;56.55;16.40;;;;;;;3.72;100.00;103726.66;5233481;28;20127;-73
2022/01/14 00:17:14;;;;;;;55.33;16.60;;;;;;;3.65;100.00;103720.66;5233712;28;20394;-73
2022/01/14 00:19:46;;;;;;;55.25;16.13;;;;;;;3.69;100.00;103728.41;5233514;28;20026;-73
2022/01/14 00:22:18;;;;;;;74.30;18.02;;;;;;;3.64;100.00;103724.13;5215704;28;20051;-73
2022/01/14 00:33:16;;;;;;;61.17;17.50;;;;;;;3.58;100.00;103712.94;5234526;28;20037;-73
2022/01/14 00:35:47;;;;;;;62.88;15.98;;;;;;;3.57;100.00;103709.50;5231840;28;20037;-73
2022/01/14 00:38:19;;;;;;;50.55;16.08;;;;;;;3.57;100.00;103709.50;5233774;28;20033;-73
2022/01/14 00:40:50;;;;;;;41.20;15.55;;;;;;;3.60;100.00;103709.47;5215541;28;20586;-73
2022/01/14 00:43:22;;;;;;;75.10;16.85;;;;;;;3.57;100.00;103700.88;5233774;28;20017;-73
2022/01/14 00:45:55;;;;;;;29.08;14.35;;;;;;;3.55;100.00;103698.28;5234106;28;20493;-74
2022/01/14 00:48:26;;;;;;;50.40;16.25;;;;;;;3.59;100.00;103697.38;5233621;28;20041;-73
2022/01/14 00:50:58;;;;;;;43.05;17.08;;;;;;;3.52;100.00;103677.56;5232863;28;20402;-74
2022/01/14 00:53:29;;;;;;;39.25;15.52;;;;;;;3.62;100.00;103691.31;5215841;28;20036;-73
2022/01/14 00:56:19;;;;;;;37.55;15.07;;;;;;;3.59;100.00;103673.19;5215570;28;20033;-73
2022/01/14 01:01:45;;;;;;;38.58;14.52;;;;;;;3.66;100.00;103669.66;5233502;28;20029;-73
2022/01/14 01:04:31;;;;;;;52.80;16.95;;;;;;;3.64;100.00;103664.50;5233234;28;20084;-73
2022/01/14 01:07:05;;;;;;;68.50;15.05;;;;;;;3.55;100.00;103661.13;5233047;28;20030;-73
2022/01/14 01:09:40;;;;;;;66.55;14.82;;;;;;;3.48;100.00;103655.13;5215184;28;20306;-73
2022/01/14 01:12:17;;;;;;;64.45;16.30;;;;;;;3.40;100.00;103655.22;5232745;28;20033;-74
2022/01/14 01:14:52;;;;;;;58.35;14.27;;;;;;;3.45;100.00;103667.28;5233089;28;20095;-74
2022/01/14 01:17:23;;;;;;;114.90;18.58;;;;;;;3.41;100.00;103664.72;5233481;28;20041;-74
2022/01/14 01:19:54;;;;;;;52.78;13.68;;;;;;;3.47;100.00;103656.03;5232184;28;20334;-74
2022/01/14 01:22:26;;;;;;;65.28;14.45;;;;;;;3.43;100.00;103646.56;5233230;28;20502;-74
2022/01/14 01:24:58;;;;;;;74.90;15.20;;;;;;;3.41;100.00;103651.78;5233000;28;20021;-74
2022/01/14 01:27:31;;;;;;;115.45;16.02;;;;;;;3.33;100.00;103651.00;5233319;28;20021;-74
2022/01/14 01:30:14;;;;;;;;;;;;;;;3.83;100.00;103656.53;5232282;28;20156;-74
2022/01/14 01:32:47;;;;;;;63.70;14.57;;;;;;;3.37;100.00;103647.50;5233026;28;19917;-74
2022/01/14 01:35:19;;;;;;;61.92;13.88;;;;;;;3.36;100.00;103650.94;5233289;28;20018;-73
2022/01/14 01:37:50;;;;;;;41.15;13.93;;;;;;;3.33;100.00;103651.00;5231961;28;20056;-73
2022/01/14 01:40:23;;;;;;;47.63;13.30;;;;;;;3.38;100.00;103653.53;5232870;28;20025;-73
2022/01/14 01:43:02;;;;;;;57.83;13.68;;;;;;;3.39;100.00;103655.25;5233158;28;20037;-73
2022/01/14 01:45:34;;;;;;;54.15;13.50;;;;;;;3.30;100.00;103640.66;5232201;28;20038;-73
2022/01/14 01:48:05;;;;;;;71.65;14.57;;;;;;;3.26;100.00;103633.78;5232990;28;20101;-73
2022/01/14 01:50:37;;;;;;;74.38;15.13;;;;;;;3.26;100.00;103643.25;5232824;28;20061;-73
2022/01/14 01:53:09;;;;;;;50.60;13.43;;;;;;;3.23;100.00;103639.00;5232016;28;20395;-73
2022/01/14 01:55:40;;;;;;;36.40;12.45;;;;;;;3.25;100.00;103631.19;5232614;28;20107;-73
2022/01/14 01:58:11;;;;;;;45.92;13.43;;;;;;;3.27;100.00;103635.50;5233105;28;20036;-74
2022/01/14 02:00:43;;;;;;;47.25;14.32;;;;;;;3.26;100.00;103638.97;5232585;28;21046;-73
2022/01/14 02:03:14;;;;;;;62.45;13.35;;;;;;;3.17;100.00;103636.44;5232374;28;20029;-73
2022/01/14 02:05:46;;;;;;;63.10;13.43;;;;;;;3.20;100.00;103640.75;5236688;28;20502;-73
2022/01/14 02:08:18;;;;;;;70.82;14.80;;;;;;;3.15;100.00;103640.78;5237034;28;20029;-73
2022/01/14 02:10:49;;;;;;;69.60;14.80;;;;;;;3.00;100.00;103615.03;5236520;28;20060;-73
2022/01/14 02:13:20;;;;;;;33.83;12.82;;;;;;;3.20;100.00;103633.81;5234089;28;20025;-73
2022/01/14 02:24:19;;;;;;;67.03;14.05;;;;;;;3.05;100.00;103619.28;5236578;28;20045;-73
2022/01/14 02:26:53;;;;;;;94.80;15.15;;;;;;;3.09;100.00;103614.94;5236348;28;20036;-73
2022/01/14 02:29:24;;;;;;;49.45;12.68;;;;;;;3.07;100.00;103616.66;5235653;28;20376;-73
2022/01/14 02:31:56;;;;;;;42.55;13.10;;;;;;;3.10;100.00;103616.63;5236468;28;20022;-73
2022/01/14 02:34:28;;;;;;;53.85;13.65;;;;;;;3.11;100.00;103603.69;5236157;28;20083;-73
2022/01/14 02:36:59;;;;;;;61.03;12.60;;;;;;;3.07;100.00;103609.78;5234580;28;20432;-73
2022/01/14 02:39:31;;;;;;;68.53;13.73;;;;;;;3.08;100.00;103602.88;5236528;28;20116;-73
2022/01/14 02:42:02;;;;;;;121.20;13.70;;;;;;;3.02;100.00;103597.72;5235842;28;20104;-73
2022/01/14 02:44:33;;;;;;;69.50;13.10;;;;;;;3.00;100.00;103605.53;5235334;28;20040;-73
2022/01/14 02:47:06;;;;;;;80.57;12.95;;;;;;;3.01;100.00;103602.06;5236585;28;20040;-73
2022/01/14 02:49:39;;;;;;;68.32;11.63;;;;;;;2.99;100.00;103605.50;5235835;28;20038;-73
2022/01/14 02:52:10;;;;;;;59.42;12.23;;;;;;;2.98;100.00;103598.63;5235624;28;20075;-73
2022/01/14 02:55:02;;;;;;;61.97;12.30;;;;;;;3.00;100.00;103600.34;5234485;28;20029;-73
2022/01/14 02:57:33;;;;;;;71.85;13.68;;;;;;;2.99;100.00;103601.19;5235652;28;20517;-73
2022/01/14 03:00:05;;;;;;;49.95;12.05;;;;;;;2.99;100.00;103592.56;5236375;28;20021;-73
2022/01/14 03:02:42;;;;;;;60.92;12.45;;;;;;;3.01;100.00;103594.28;5233708;28;20087;-73
2022/01/14 03:05:15;;;;;;;46.95;11.63;;;;;;;3.01;100.00;103606.38;5235605;28;20467;-73
2022/01/14 03:07:47;;;;;;;;;;;;;;;3.49;100.00;103607.63;5235659;28;20379;-73
2022/01/14 03:10:19;;;;;;;38.42;11.38;;;;;;;3.01;100.00;103609.81;5235757;28;19916;-73
2022/01/14 03:12:50;;;;;;;47.65;12.52;;;;;;;2.95;100.00;103603.81;5235284;28;20025;-73
2022/01/14 03:15:21;;;;;;;67.03;13.65;;;;;;;2.92;100.00;103602.16;5234990;28;20052;-73
2022/01/14 03:17:53;;;;;;;29.73;10.98;;;;;;;2.97;100.00;103589.16;5217565;28;20026;-73
2022/01/14 03:20:48;;;;;;;42.08;11.25;;;;;;;2.98;100.00;103591.72;5229521;28;20123;-73
2022/01/14 03:23:19;;;;;;;49.00;11.32;;;;;;;2.97;100.00;103594.31;5217552;28;20470;-73
2022/01/14 03:25:51;;;;;;;39.38;11.90;;;;;;;3.02;100.00;103598.56;5235322;28;20025;-73
2022/01/14 03:28:24;;;;;;;63.05;13.70;;;;;;;2.95;100.00;103593.47;5234598;28;20093;-73
2022/01/14 03:30:55;;;;;;;42.63;12.18;;;;;;;3.03;100.00;103597.72;5235279;28;20033;-73
2022/01/14 03:33:26;;;;;;;47.58;11.50;;;;;;;2.97;100.00;103608.13;5217267;28;20029;-73
2022/01/14 03:35:57;;;;;;;49.40;11.95;;;;;;;2.97;100.00;103595.19;5234701;28;20025;-73
2022/01/14 03:38:29;;;;;;;26.60;10.70;;;;;;;3.00;100.00;103605.53;5235429;28;20391;-73
2022/01/14 03:41:01;;;;;;;33.70;11.48;;;;;;;3.07;100.00;103602.00;5234392;28;20076;-73
2022/01/14 03:43:35;;;;;;;37.28;11.40;;;;;;;3.06;100.00;103592.50;5235321;28;20144;-73
2022/01/14 03:46:07;;;;;;;59.58;13.23;;;;;;;3.04;100.00;103591.66;5220755;28;20110;-73
2022/01/14 03:48:38;;;;;;;55.78;12.35;;;;;;;3.02;100.00;103593.41;5234828;28;20072;-73
2022/01/14 03:51:11;;;;;;;59.78;11.82;;;;;;;3.01;100.00;103585.66;5216705;28;20491;-73
2022/01/14 03:53:45;;;;;;;63.65;13.20;;;;;;;2.97;100.00;103587.41;5235017;28;20470;-73
2022/01/14 03:56:17;;;;;;;56.97;12.45;;;;;;;2.95;100.00;103594.31;5216408;28;20108;-73
2022/01/14 03:58:49;;;;;;;64.20;12.98;;;;;;;2.96;100.00;103585.69;5234595;28;20036;-73
2022/01/14 04:01:21;;;;;;;46.63;10.98;;;;;;;3.03;100.00;103599.44;5216364;28;20025;-73
2022/01/14 04:03:52;;;;;;;69.35;13.90;;;;;;;2.96;100.00;103596.06;5233952;28;20054;-73
2022/01/14 04:06:24;;;;;;;73.13;11.95;;;;;;;3.00;100.00;103604.66;5217082;28;20055;-73
2022/01/14 04:08:55;;;;;;;81.10;11.40;;;;;;;2.95;100.00;103598.66;5234512;28;20033;-73
2022/01/14 04:11:28;;;;;;;39.10;10.93;;;;;;;2.84;100.00;103575.44;5234311;28;20120;-73
2022/01/14 04:17:02;;;;;;;63.47;14.52;;;;;;;2.96;100.00;103592.63;5157378;28;20033;-73
2022/01/14 04:19:33;;;;;;;89.07;13.20;;;;;;;2.93;100.00;103590.91;5233971;28;20033;-73
2022/01/14 04:22:04;;;;;;;95.18;14.82;;;;;;;2.94;100.00;103590.03;5233801;28;20031;-73
2022/01/14 04:24:36;;;;;;;64.65;11.65;;;;;;;2.90;100.00;103584.00;5234086;28;20021;-73
2022/01/14 04:27:07;;;;;;;39.92;11.50;;;;;;;2.92;100.00;103592.63;5234140;28;20033;-73
2022/01/14 04:29:38;;;;;;;50.65;11.48;;;;;;;2.90;100.00;103588.34;5233746;28;20097;-73
2022/01/14 04:32:10;;;;;;;72.10;11.57;;;;;;;2.91;100.00;103590.03;5233090;28;20406;-73
2022/01/14 04:34:41;;;;;;;92.65;12.85;;;;;;;2.87;100.00;103578.84;5216186;28;20099;-73
2022/01/14 04:37:12;;;;;;;72.75;12.18;;;;;;;2.74;100.00;103569.50;5216107;28;20040;-73
2022/01/14 04:39:43;;;;;;;49.67;10.68;;;;;;;2.83;100.00;103569.41;5233623;28;20059;-73
2022/01/14 04:42:15;;;;;;;89.50;12.30;;;;;;;2.82;100.00;103574.59;5233692;28;20038;-73
2022/01/14 04:44:46;;;;;;;73.55;13.00;;;;;;;2.81;100.00;103565.13;5216114;28;20052;-73
2022/01/14 04:47:30;;;;;;;116.20;13.43;;;;;;;2.69;100.00;103566.09;5233873;28;20021;-73
2022/01/14 04:50:01;;;;;;;69.43;11.27;;;;;;;2.73;100.00;103570.38;5232923;28;20087;-73
2022/01/14 04:52:32;;;;;;;82.00;12.02;;;;;;;2.73;100.00;103559.13;5215906;28;20481;-72
2022/01/14 04:55:04;;;;;;;92.28;12.10;;;;;;;2.66;100.00;103548.84;5216171;28;20025;-73
2022/01/14 04:57:37;;;;;;;82.32;11.73;;;;;;;2.66;100.00;103554.03;5221905;28;20037;-73
2022/01/14 05:00:12;;;;;;;71.28;11.23;;;;;;;2.72;100.00;103552.25;5233194;28;20021;-73
2022/01/14 05:02:44;;;;;;;96.95;12.02;;;;;;;2.65;100.00;103551.44;5214650;28;20025;-73
2022/01/14 05:05:17;;;;;;;84.45;11.80;;;;;;;2.66;100.00;103548.00;5213796;28;20088;-73
2022/01/14 05:07:50;;;;;;;85.13;12.02;;;;;;;2.71;100.00;103538.44;5233030;28;20053;-73
2022/01/14 05:12:53;;;;;;;50.60;10.15;;;;;;;2.75;100.00;103541.88;5233798;28;20038;-73
2022/01/14 05:15:24;;;;;;;80.22;10.98;;;;;;;2.76;100.00;103541.84;5214850;28;20033;-73
2022/01/14 05:17:56;;;;;;;83.78;11.82;;;;;;;2.68;100.00;103530.69;5233167;28;20108;-74
2022/01/14 05:20:27;;;;;;;85.65;11.68;;;;;;;2.68;100.00;103536.72;5215434;28;20029;-73
2022/01/14 05:22:58;;;;;;;67.25;10.05;;;;;;;2.68;100.00;103533.28;5233739;28;20032;-73
2022/01/14 05:25:30;;;;;;;72.53;12.43;;;;;;;2.64;100.00;103537.63;5233467;28;20033;-73
2022/01/14 05:28:01;;;;;;;65.22;11.10;;;;;;;2.61;100.00;103532.50;5215213;28;20033;-73
2022/01/14 05:30:33;;;;;;;78.45;11.23;;;;;;;2.53;100.00;103531.69;5215499;28;20040;-73
2022/01/14 05:33:04;;;;;;;63.83;11.27;;;;;;;2.54;100.00;103533.41;5233058;28;20063;-73
2022/01/14 05:35:35;;;;;;;69.70;10.60;;;;;;;2.50;100.00;103531.72;5233505;28;20029;-73
2022/01/14 05:38:07;;;;;;;56.45;10.50;;;;;;;2.51;100.00;103523.09;5235010;28;20091;-73
2022/01/14 05:40:39;;;;;;;72.57;10.50;;;;;;;2.49;100.00;103518.78;5237031;28;20088;-74
2022/01/14 05:43:10;;;;;;;53.80;10.85;;;;;;;2.49;100.00;103523.97;5236132;28;20041;-74
2022/01/14 05:45:41;;;;;;;34.08;9.07;;;;;;;2.53;100.00;103525.66;5237744;28;20414;-74
2022/01/14 05:48:12;;;;;;;46.88;9.80;;;;;;;2.40;100.00;103510.22;5237300;28;20411;-73
2022/01/14 05:50:44;;;;;;;41.85;9.32;;;;;;;2.55;100.00;103523.94;5235698;28;20364;-74
2022/01/14 05:53:15;;;;;;;48.88;10.98;;;;;;;2.46;100.00;103509.31;5236611;28;20115;-73
2022/01/14 05:55:46;;;;;;;40.35;9.63;;;;;;;2.55;100.00;103518.75;5237317;28;20883;-73
2022/01/14 05:58:18;;;;;;;53.35;10.88;;;;;;;2.48;100.00;103515.34;5237000;28;20037;-73
2022/01/14 06:00:49;;;;;;;51.42;9.07;;;;;;;2.47;100.00;103525.72;5217965;28;20068;-73
2022/01/14 06:03:22;;;;;;;97.57;12.57;;;;;;;2.38;100.00;103516.28;5236661;28;20117;-72
2022/01/14 06:05:54;;;;;;;59.85;10.13;;;;;;;2.40;100.00;103518.00;5237114;28;20013;-73
2022/01/14 06:08:25;;;;;;;58.50;9.13;;;;;;;2.39;100.00;103533.53;5236969;28;20337;-74
2022/01/14 06:10:56;;;;;;;40.72;8.98;;;;;;;2.40;100.00;103527.50;5236056;28;20110;-73
2022/01/14 06:13:27;;;;;;;47.30;9.68;;;;;;;2.38;100.00;103511.09;5236255;28;20033;-73
2022/01/14 06:15:59;;;;;;;34.58;10.02;;;;;;;2.38;100.00;103527.47;5236337;28;20033;-73
2022/01/14 06:18:30;;;;;;;33.75;10.10;;;;;;;2.31;100.00;103523.25;5235995;28;20033;-74
2022/01/14 06:21:03;;;;;;;48.35;10.93;;;;;;;2.39;100.00;103528.38;5236460;28;20060;-74
2022/01/14 06:23:34;;;;;;;53.38;10.38;;;;;;;2.42;100.00;103533.50;5236512;28;20497;-73
2022/01/14 06:26:07;;;;;;;78.18;11.70;;;;;;;2.33;100.00;103523.22;5235282;28;20029;-74
2022/01/14 06:28:38;;;;;;;63.08;11.70;;;;;;;2.27;100.00;103526.69;5236654;28;20018;-74
2022/01/14 06:31:09;;;;;;;48.65;10.68;;;;;;;2.33;100.00;103533.56;5236239;28;20044;-73
2022/01/14 06:33:41;;;;;;;62.70;11.38;;;;;;;2.33;100.00;103541.34;5235796;28;20529;-73
2022/01/14 06:36:13;;;;;;;48.97;10.63;;;;;;;2.34;100.00;103535.28;5236359;28;20422;-73
2022/01/14 06:38:44;;;;;;;35.80;9.68;;;;;;;2.38;100.00;103526.63;5235573;28;20079;-74
2022/01/14 06:41:15;;;;;;;69.70;11.63;;;;;;;2.39;100.00;103520.59;5235551;28;20425;-74
2022/01/14 06:43:47;;;;;;;73.70;12.50;;;;;;;2.38;100.00;103540.41;5234987;28;20482;-73
2022/01/14 06:46:18;;;;;;;54.40;11.73;;;;;;;2.39;100.00;103528.38;5235960;28;20501;-73
2022/01/14 06:48:49;;;;;;;47.38;11.18;;;;;;;2.40;100.00;103515.41;5215939;28;20422;-74
2022/01/14 06:51:21;;;;;;;62.28;12.77;;;;;;;2.37;100.00;103510.25;5231207;28;20580;-73
2022/01/14 06:53:52;;;;;;;35.03;11.30;;;;;;;2.40;100.00;103506.78;5234524;28;20398;-73
2022/01/14 06:56:24;;;;;;;45.80;11.30;;;;;;;2.38;100.00;103511.97;5233564;28;20056;-74
2022/01/14 06:58:55;;;;;;;81.55;13.93;;;;;;;2.39;100.00;103515.44;5235174;28;20034;-73
2022/01/14 07:01:26;;;;;;;52.72;11.35;;;;;;;2.40;100.00;103520.59;5234162;28;20030;-73
2022/01/14 07:03:57;;;;;;;55.47;12.73;;;;;;;2.42;100.00;103523.16;5230997;28;20441;-73
2022/01/14 07:06:29;;;;;;;45.28;12.68;;;;;;;2.44;100.00;103534.34;5230155;28;20171;-73
2022/01/14 07:09:00;;;;;;;89.97;15.02;;;;;;;2.38;100.00;103524.03;5231606;28;20014;-73
2022/01/14 07:11:36;;;;;;;49.88;13.77;;;;;;;2.41;100.00;103532.63;5231182;28;20124;-73
2022/01/14 07:14:07;;;;;;;84.90;15.32;;;;;;;2.38;100.00;103542.16;5234885;28;20038;-72
2022/01/14 07:16:39;;;;;;;62.20;12.85;;;;;;;2.39;100.00;103543.88;5234799;28;20041;-73
2022/01/14 07:19:12;;;;;;;80.00;14.40;;;;;;;2.32;100.00;103524.97;5235207;28;20030;-73
2022/01/14 07:21:43;;;;;;;86.30;14.57;;;;;;;2.31;100.00;103546.53;5233262;28;20470;-73
2022/01/14 07:24:15;;;;;;;60.20;12.60;;;;;;;2.33;100.00;103543.91;5234699;28;20033;-73
2022/01/14 07:26:50;;;;;;;109.93;16.13;;;;;;;2.31;100.00;103550.81;5234418;28;20082;-72
2022/01/14 07:29:21;;;;;;;103.22;14.00;;;;;;;2.25;100.00;103550.88;5234164;28;20586;-73
2022/01/14 07:31:53;;;;;;;86.72;14.63;;;;;;;2.31;100.00;103545.66;5234920;28;20028;-73
2022/01/14 07:34:25;;;;;;;105.45;16.38;;;;;;;2.28;100.00;103540.53;5231153;28;20650;-73
2022/01/14 07:36:56;;;;;;;63.67;14.40;;;;;;;2.29;100.00;103542.22;5234727;28;20402;-73
2022/01/14 07:39:27;;;;;;;86.53;16.88;;;;;;;2.25;100.00;103549.16;5234169;28;20065;-73
2022/01/14 07:41:59;;;;;;;70.35;14.00;;;;;;;2.22;100.00;103550.91;5231965;28;20033;-73
2022/01/14 07:44:30;;;;;;;115.05;16.55;;;;;;;2.17;100.00;103540.59;5233080;28;20686;-73
2022/01/14 07:47:02;;;;;;;62.08;14.25;;;;;;;2.21;100.00;103539.69;5227174;28;20029;-73
2022/01/14 07:49:33;;;;;;;99.47;16.50;;;;;;;2.26;100.00;103539.66;5233539;28;20029;-73
2022/01/14 07:52:05;;;;;;;91.28;15.00;;;;;;;2.29;100.00;103539.63;5233964;28;20144;-73
2022/01/14 07:54:36;;;;;;;116.15;16.63;;;;;;;2.26;100.00;103542.25;5234317;28;20151;-73
2022/01/14 07:57:08;;;;;;;103.28;15.50;;;;;;;2.26;100.00;103531.91;5233224;28;20075;-73
2022/01/14 07:59:40;;;;;;;77.22;14.32;;;;;;;2.28;100.00;103541.38;5234219;28;20079;-73
2022/01/14 08:02:13;;;;;;;76.30;17.05;;;;;;;2.29;100.00;103539.63;5233217;28;20541;-73
2022/01/14 08:04:44;;;;;;;66.93;15.30;;;;;;;2.35;100.00;103531.81;5234053;28;20030;-73
2022/01/14 08:07:21;;;;;;;86.10;15.60;;;;;;;2.30;100.00;103534.44;5234455;28;20032;-73
2022/01/14 08:09:53;;;;;;;59.72;15.13;;;;;;;2.31;100.00;103545.66;5234171;28;20120;-73
2022/01/14 08:12:24;;;;;;;77.18;15.68;;;;;;;2.30;100.00;103546.53;5232952;28;20193;-73
2022/01/14 08:14:57;;;;;;;66.65;15.35;;;;;;;2.33;100.00;103544.78;5233893;28;20029;-74
2022/01/14 08:17:29;;;;;;;55.20;14.35;;;;;;;2.34;100.00;103555.97;5233794;28;20034;-73
2022/01/14 08:20:01;;;;;;;72.20;15.82;;;;;;;2.33;100.00;103539.59;5231350;28;20549;-73
2022/01/14 08:22:34;;;;;;;63.80;14.85;;;;;;;2.36;100.00;103546.50;5231308;28;20041;-73
2022/01/14 08:25:06;;;;;;;100.72;20.30;;;;;;;2.31;100.00;103530.13;5230286;28;20601;-73
2022/01/14 08:27:38;;;;;;;66.85;15.40;;;;;;;2.37;100.00;103532.69;5233282;28;20034;-74
2022/01/14 08:30:09;;;;;;;104.63;17.48;;;;;;;2.32;100.00;103526.69;5232198;28;20029;-73
2022/01/14 08:32:41;;;;;;;77.95;16.02;;;;;;;2.35;100.00;103530.13;5233271;28;20052;-73
2022/01/14 08:35:12;;;;;;;62.10;14.85;;;;;;;2.40;100.00;103530.06;5233356;28;20865;-72
2022/01/14 08:37:44;;;;;;;78.35;15.63;;;;;;;2.44;100.00;103521.41;5231883;28;20456;-73
2022/01/14 08:40:15;;;;;;;53.92;15.10;;;;;;;2.46;100.00;103513.63;5232801;28;20033;-74
2022/01/14 08:42:52;;;;;;;63.72;16.40;;;;;;;2.53;100.00;103517.88;5233160;28;20921;-73
2022/01/14 08:45:24;;;;;;;56.63;17.20;;;;;;;2.51;100.00;103524.81;5231481;28;20036;-73
2022/01/14 08:47:56;;;;;;;55.22;15.02;;;;;;;2.51;100.00;103559.31;5232908;28;20034;-73
2022/01/14 08:50:31;;;;;;;43.63;13.93;;;;;;;2.62;100.00;103557.50;5232993;28;20033;-73
2022/01/14 08:53:10;;;;;;;64.72;15.13;;;;;;;2.71;100.00;103558.31;5232207;28;20461;-73
2022/01/14 08:55:42;;;;;;;70.47;15.90;;;;;;;2.61;100.00;103558.38;5231279;28;20116;-73
2022/01/14 08:58:13;;;;;;;60.13;16.02;;;;;;;2.69;100.00;103545.38;5233190;28;20028;-73
2022/01/14 09:00:44;;;;;;;88.93;17.08;;;;;;;2.67;100.00;103524.66;5232522;28;20021;-73
2022/01/14 09:03:16;;;;;;;68.35;17.83;;;;;;;2.70;100.00;103528.13;5232060;28;20022;-73
2022/01/14 09:05:47;;;;;;;66.63;16.92;;;;;;;2.74;100.00;103528.06;5232836;28;20488;-73
2022/01/14 09:08:18;;;;;;;37.42;16.23;;;;;;;2.75;100.00;103521.16;5232680;28;20458;-73
2022/01/14 09:10:49;;;;;;;71.47;17.45;;;;;;;2.80;100.00;103535.75;5232649;28;20494;-73
2022/01/14 09:13:21;;;;;;;56.08;18.48;;;;;;;2.78;100.00;103527.16;5234529;28;20103;-73
2022/01/14 09:15:52;;;;;;;83.85;18.65;;;;;;;2.79;100.00;103543.56;5218680;28;20048;-73
2022/01/14 09:18:23;;;;;;;50.30;17.40;;;;;;;2.84;100.00;103541.78;5236013;28;20086;-74
2022/01/14 09:20:58;;;;;;;47.00;16.50;;;;;;;2.88;100.00;103543.50;5231513;28;20021;-73
2022/01/14 09:23:30;;;;;;;40.85;17.63;;;;;;;2.95;100.00;103546.84;5236487;28;20467;-73
2022/01/14 09:26:01;;;;;;;72.50;18.27;;;;;;;2.89;100.00;103543.47;5237155;28;20060;-73
2022/01/14 09:28:34;;;;;;;68.30;18.05;;;;;;;2.94;100.00;103540.81;5236909;28;20028;-73
2022/01/14 09:31:05;;;;;;;82.43;18.65;;;;;;;2.92;100.00;103535.66;5236080;28;20025;-73
2022/01/14 09:33:38;;;;;;;49.60;17.05;;;;;;;2.92;100.00;103543.44;5236700;28;20388;-73
2022/01/14 09:36:10;;;;;;;48.63;16.88;;;;;;;3.00;100.00;103548.53;5235580;28;20059;-73
2022/01/14 09:38:42;;;;;;;74.65;19.40;;;;;;;3.02;100.00;103546.78;5235044;28;20037;-73
2022/01/14 09:41:14;;;;;;;63.13;18.33;;;;;;;2.93;100.00;103527.03;5234634;28;20674;-73
2022/01/14 09:43:46;;;;;;;66.57;19.67;;;;;;;3.04;100.00;103537.28;5236669;28;20371;-73
2022/01/14 09:46:17;;;;;;;40.67;18.73;;;;;;;3.06;100.00;103537.25;5236351;28;20033;-73
2022/01/14 09:48:50;;;;;;;31.95;18.00;;;;;;;3.23;100.00;103544.88;5236077;28;20032;-73
2022/01/14 09:51:22;;;;;;;37.65;17.95;;;;;;;3.27;100.00;103546.53;5235432;28;20052;-73
2022/01/14 09:53:53;;;;;;;32.15;17.63;;;;;;;3.36;100.00;103554.22;5236635;28;20029;-73
2022/01/14 09:56:24;;;;;;;74.97;19.35;;;;;;;3.38;100.00;103563.69;5236570;28;20087;-73
2022/01/14 09:58:56;;;;;;;66.85;20.27;;;;;;;3.36;100.00;103552.47;5217991;28;20136;-73
2022/01/14 10:01:28;;;;;;;47.13;18.05;;;;;;;3.34;100.00;103555.97;5236223;28;20057;-73
2022/01/14 10:04:02;;;;;;;99.72;20.50;;;;;;;3.34;100.00;103564.59;5236216;28;20061;-73
2022/01/14 10:06:33;;;;;;;52.67;17.45;;;;;;;3.32;100.00;103565.47;5235611;28;20064;-73
2022/01/14 10:09:09;;;;;;;61.40;18.73;;;;;;;3.32;100.00;103574.09;5235875;28;20057;-73
2022/01/14 10:11:42;;;;;;;52.65;19.52;;;;;;;3.31;100.00;103553.41;5235218;28;20288;-73
2022/01/14 10:14:17;;;;;;;;;;;;;;;3.86;100.00;103576.06;5235426;28;20025;-74
2022/01/14 10:16:57;;;;;;;46.55;16.77;;;;;;;3.44;100.00;103565.34;5235598;28;19943;-73
2022/01/14 10:19:32;;;;;;;77.40;17.98;;;;;;;3.43;100.00;103579.19;5235713;28;20041;-73
2022/01/14 10:22:28;;;;;;;46.00;18.80;;;;;;;3.55;100.00;103575.59;5235822;28;20025;-73
2022/01/14 10:25:00;;;;;;;47.22;17.98;;;;;;;3.47;100.00;103574.81;5234041;28;20213;-73
2022/01/14 10:27:39;;;;;;;41.80;18.08;;;;;;;3.51;100.00;103577.34;5218670;28;20034;-73
2022/01/14 10:30:14;;;;;;;29.65;16.58;;;;;;;3.58;100.00;103570.38;5235355;28;20033;-73
2022/01/14 10:32:54;;;;;;;40.15;18.25;;;;;;;3.68;100.00;103569.41;5234873;28;20128;-73
2022/01/14 10:35:28;;;;;;;36.88;18.42;;;;;;;3.68;100.00;103574.59;5235526;28;20033;-73
2022/01/14 10:38:02;;;;;;;43.90;18.23;;;;;;;3.60;100.00;103572.09;5235014;28;20029;-73
2022/01/14 10:40:38;;;;;;;31.50;19.50;;;;;;;3.71;100.00;103573.66;5233882;28;20036;-73
2022/01/14 10:43:12;;;;;;;30.05;17.80;;;;;;;3.72;100.00;103565.88;5234876;28;20025;-73
2022/01/14 10:45:45;;;;;;;36.50;18.58;;;;;;;3.72;100.00;103565.03;5234880;28;20037;-73
2022/01/14 10:48:25;;;;;;;;;;;;;;;4.19;100.00;103548.81;5236059;28;20034;-73
2022/01/14 10:51:04;;;;;;;25.15;18.23;;;;;;;3.77;100.00;103550.28;5202983;28;20015;-73
2022/01/14 10:53:41;;;;;;;27.88;17.25;;;;;;;3.79;100.00;103556.28;5217791;28;20041;-73
2022/01/14 10:56:18;;;;;;;25.15;17.00;;;;;;;3.81;100.00;103549.34;5235571;28;20107;-73
2022/01/14 10:58:55;;;;;;;23.52;17.17;;;;;;;3.85;100.00;103553.63;5235029;28;20025;-73
2022/01/14 11:01:27;;;;;;;26.98;17.77;;;;;;;3.90;100.00;103550.09;5233991;28;20071;-73
2022/01/14 11:04:06;;;;;;;25.88;18.10;;;;;;;3.89;100.00;103544.91;5217244;28;20374;-73
2022/01/14 11:06:41;;;;;;;25.67;19.00;;;;;;;4.01;100.00;103543.88;5235274;28;20025;-73
2022/01/14 11:09:17;;;;;;;28.75;19.75;;;;;;;3.95;100.00;103536.22;5234717;28;20025;-73
2022/01/14 11:11:50;;;;;;;30.50;20.70;;;;;;;4.05;100.00;103536.06;5234061;28;20121;-73
2022/01/14 11:14:22;;;;;;;29.85;20.00;;;;;;;3.99;100.00;103522.31;5235199;28;20513;-73
2022/01/14 11:16:53;;;;;;;30.35;21.23;;;;;;;4.08;100.00;103529.94;5234200;28;20044;-73
2022/01/14 11:19:24;;;;;;;33.45;22.27;;;;;;;4.12;100.00;103532.47;5234609;28;20029;-73
2022/01/14 11:24:47;;;;;;;32.88;22.15;;;;;;;4.22;100.00;103527.16;5232872;28;20037;-74
2022/01/14 11:27:19;;;;;;;31.27;20.88;;;;;;;4.19;100.00;103529.81;5213850;28;20336;-73
2022/01/14 11:29:57;;;;;;;27.93;21.47;;;;;;;4.23;100.00;103531.47;5225278;28;20434;-74
2022/01/14 11:33:01;;;;;;;28.60;20.50;;;;;;;4.45;100.00;103527.66;5233444;28;20030;-73
2022/01/14 11:35:36;;;;;;;27.95;19.85;;;;;;;4.36;100.00;103533.00;5232795;28;20034;-73
2022/01/14 11:38:37;;;;;;;30.10;21.55;;;;;;;4.56;100.00;103532.69;5233746;28;20470;-74
2022/01/14 11:41:16;;;;;;;29.23;19.52;;;;;;;4.42;100.00;103538.09;5233173;28;20037;-73
2022/01/14 11:43:54;;;;;;;26.10;19.33;;;;;;;4.42;100.00;103538.09;5232580;28;20029;-73
2022/01/14 11:46:31;;;;;;;24.88;19.08;;;;;;;4.53;100.00;103538.78;5233521;28;20041;-74
2022/01/14 11:49:34;;;;;;;22.33;16.98;;;;;;;4.67;100.00;103532.50;5234050;28;20057;-73
2022/01/14 11:52:08;;;;;;;23.83;18.33;;;;;;;4.55;100.00;103531.84;5234269;28;20418;-73
2022/01/14 11:54:45;;;;;;;23.13;17.60;;;;;;;4.60;100.00;103526.56;5233132;28;20067;-73
2022/01/14 11:57:39;;;;;;;26.48;18.52;;;;;;;4.75;100.00;103526.28;5234276;28;20056;-73
2022/01/14 12:00:41;;;;;;;24.48;18.65;;;;;;;4.78;100.00;103531.44;5233147;28;20108;-74
2022/01/14 12:03:17;;;;;;;24.50;18.30;;;;;;;4.66;100.00;103517.78;5215377;28;20045;-73
2022/01/14 12:06:08;;;;;;;24.00;19.02;;;;;;;4.84;100.00;103515.72;5232105;28;20064;-73